createdAt,value
2023-02-03T00:01:03.596Z,3.38
2023-02-03T00:03:07.829Z,2.47
2023-02-03T00:05:11.915Z,3.00
2023-02-03T00:07:15.990Z,3.30
2023-02-03T00:09:20.271Z,3.38
2023-02-03T00:11:24.389Z,3.05
2023-02-03T00:13:30.006Z,3.47
2023-02-03T00:15:34.087Z,2.97
2023-02-03T00:17:38.181Z,3.83
2023-02-03T00:19:42.246Z,2.78
2023-02-03T00:21:46.314Z,3.00
2023-02-03T00:23:50.461Z,3.20
2023-02-03T00:25:54.543Z,2.75
2023-02-03T00:27:58.803Z,3.67
2023-02-03T00:30:04.510Z,2.60
2023-02-03T00:32:08.792Z,3.40
2023-02-03T00:34:13.008Z,3.10
2023-02-03T00:36:17.313Z,3.20
2023-02-03T00:38:21.383Z,2.78
2023-02-03T00:40:26.762Z,2.97
2023-02-03T00:42:31.049Z,3.00
2023-02-03T00:44:35.106Z,2.33
2023-02-03T00:46:40.585Z,3.42
2023-02-03T00:48:44.650Z,3.40
2023-02-03T00:50:50.415Z,2.90
2023-02-03T00:52:55.209Z,3.22
2023-02-03T00:54:59.299Z,3.33
2023-02-03T00:57:03.428Z,3.22
2023-02-03T00:59:07.576Z,2.50
2023-02-03T01:01:12.439Z,2.63
2023-02-03T01:03:18.132Z,2.97
2023-02-03T01:05:22.199Z,2.83
2023-02-03T01:07:26.387Z,2.42
2023-02-03T01:09:30.454Z,2.40
2023-02-03T01:11:34.692Z,3.10
2023-02-03T01:13:39.051Z,3.38
2023-02-03T01:15:48.842Z,2.90
2023-02-03T01:17:52.955Z,2.40
2023-02-03T01:19:58.380Z,3.42
2023-02-03T01:22:02.464Z,2.58
2023-02-03T01:24:07.239Z,2.83
2023-02-03T01:26:12.705Z,2.95
2023-02-03T01:28:16.940Z,3.42
2023-02-03T01:30:21.142Z,2.90
2023-02-03T01:32:25.251Z,2.97
2023-02-03T01:34:29.421Z,2.92
2023-02-03T01:36:35.439Z,2.92
2023-02-03T01:38:39.874Z,2.20
2023-02-03T01:40:44.813Z,2.35
2023-02-03T01:42:49.918Z,2.35
2023-02-03T01:44:55.101Z,2.70
2023-02-03T01:46:59.216Z,2.80
2023-02-03T01:49:06.061Z,2.03
2023-02-03T01:51:10.128Z,2.15
2023-02-03T01:53:15.582Z,2.38
2023-02-03T01:55:21.722Z,2.20
2023-02-03T01:57:27.869Z,2.35
2023-02-03T01:59:32.192Z,3.15
2023-02-03T02:01:37.201Z,2.58
2023-02-03T02:03:43.184Z,3.08
2023-02-03T02:05:49.208Z,2.50
2023-02-03T02:07:53.279Z,2.53
2023-02-03T02:09:58.825Z,2.30
2023-02-03T02:12:02.885Z,2.45
2023-02-03T02:14:07.119Z,2.95
2023-02-03T02:16:15.913Z,2.38
2023-02-03T02:18:29.699Z,2.75
2023-02-03T02:21:04.526Z,3.30
2023-02-03T02:23:36.962Z,2.78
2023-02-03T02:25:55.245Z,2.15
2023-02-03T02:28:14.526Z,1.77
2023-02-03T02:30:44.524Z,2.10
2023-02-03T02:32:55.865Z,2.15
2023-02-03T02:35:04.419Z,1.92
2023-02-03T02:37:10.640Z,2.85
2023-02-03T02:39:15.567Z,2.67
2023-02-03T02:41:21.250Z,1.58
2023-02-03T02:43:29.418Z,1.90
2023-02-03T02:45:40.584Z,1.70
2023-02-03T02:47:45.623Z,3.08
2023-02-03T02:49:54.309Z,1.90
2023-02-03T02:51:58.682Z,1.95
2023-02-03T02:54:04.546Z,2.17
2023-02-03T02:56:11.092Z,2.70
2023-02-03T02:58:16.482Z,1.85
2023-02-03T03:00:21.549Z,2.00
2023-02-03T03:02:32.715Z,1.90
2023-02-03T03:04:38.259Z,1.70
2023-02-03T03:06:45.106Z,2.25
2023-02-03T03:08:51.084Z,1.92
2023-02-03T03:10:55.154Z,2.30
2023-02-03T03:13:01.456Z,2.10
2023-02-03T03:15:07.917Z,1.95
2023-02-03T03:17:13.892Z,2.28
2023-02-03T03:19:19.181Z,2.22
2023-02-03T03:21:25.725Z,2.38
2023-02-03T03:23:32.925Z,2.70
2023-02-03T03:25:37.684Z,1.95
2023-02-03T03:27:43.400Z,2.45
2023-02-03T03:29:49.676Z,1.90
2023-02-03T03:31:54.432Z,1.80
2023-02-03T03:33:58.875Z,2.22
2023-02-03T03:36:04.261Z,1.77
2023-02-03T03:38:10.637Z,2.05
2023-02-03T03:40:19.182Z,1.85
2023-02-03T03:42:26.971Z,2.67
2023-02-03T03:44:32.650Z,1.77
2023-02-03T03:46:38.805Z,1.90
2023-02-03T03:48:47.688Z,2.63
2023-02-03T03:50:54.406Z,1.95
2023-02-03T03:52:58.922Z,2.08
2023-02-03T03:55:03.136Z,2.00
2023-02-03T03:57:14.974Z,2.10
2023-02-03T03:59:20.196Z,2.05
2023-02-03T04:01:24.720Z,2.55
2023-02-03T04:03:31.589Z,1.95
2023-02-03T04:05:35.726Z,1.60
2023-02-03T04:07:40.059Z,2.05
2023-02-03T04:09:44.137Z,1.88
2023-02-03T04:12:03.692Z,2.30
2023-02-03T04:14:09.115Z,1.80
2023-02-03T04:16:13.380Z,1.67
2023-02-03T04:18:17.667Z,1.40
2023-02-03T04:20:21.878Z,1.77
2023-02-03T04:22:26.003Z,2.10
2023-02-03T04:24:30.402Z,1.27
2023-02-03T04:26:34.398Z,1.90
2023-02-03T04:28:38.486Z,1.90
2023-02-03T04:30:43.943Z,1.73
2023-02-03T04:32:48.047Z,1.60
2023-02-03T04:34:52.121Z,2.10
2023-02-03T04:36:56.215Z,1.58
2023-02-03T04:39:00.305Z,2.13
2023-02-03T04:41:04.439Z,2.05
2023-02-03T04:43:09.199Z,1.42
2023-02-03T04:45:13.333Z,1.83
2023-02-03T04:47:18.870Z,1.90
2023-02-03T04:49:22.974Z,1.65
2023-02-03T04:51:27.494Z,1.73
2023-02-03T04:53:31.710Z,2.15
2023-02-03T04:55:35.814Z,1.42
2023-02-03T04:57:39.901Z,2.15
2023-02-03T04:59:43.966Z,1.60
2023-02-03T05:01:48.080Z,1.85
2023-02-03T05:03:53.827Z,1.70
2023-02-03T05:05:58.592Z,1.67
2023-02-03T05:08:02.915Z,1.40
2023-02-03T05:10:07.583Z,1.77
2023-02-03T05:12:11.652Z,1.80
2023-02-03T05:14:15.735Z,1.55
2023-02-03T05:16:20.053Z,1.63
2023-02-03T05:18:24.149Z,1.77
2023-02-03T05:20:29.753Z,1.73
2023-02-03T05:22:35.228Z,2.20
2023-02-03T05:24:39.300Z,1.63
2023-02-03T05:26:43.407Z,1.48
2023-02-03T05:28:47.486Z,1.88
2023-02-03T05:30:51.617Z,1.70
2023-02-03T05:32:55.735Z,1.58
2023-02-03T05:34:59.808Z,1.73
2023-02-03T05:37:05.263Z,1.88
2023-02-03T05:39:09.585Z,1.70
2023-02-03T05:41:31.049Z,2.00
2023-02-03T05:43:35.237Z,1.42
2023-02-03T05:45:39.359Z,1.63
2023-02-03T05:47:43.614Z,1.55
2023-02-03T05:49:47.664Z,1.45
2023-02-03T05:51:51.880Z,1.45
2023-02-03T05:53:57.351Z,1.35
2023-02-03T05:56:01.433Z,1.40
2023-02-03T05:58:05.746Z,1.42
2023-02-03T06:00:11.288Z,1.35
2023-02-03T06:02:18.247Z,1.50
2023-02-03T06:04:22.365Z,1.80
2023-02-03T06:06:27.191Z,1.50
2023-02-03T06:08:31.279Z,1.92
2023-02-03T06:10:36.714Z,1.30
2023-02-03T06:12:40.801Z,1.40
2023-02-03T06:14:45.190Z,1.60
2023-02-03T06:16:49.553Z,1.35
2023-02-03T06:18:54.030Z,1.67
2023-02-03T06:20:58.096Z,1.60
2023-02-03T06:23:02.299Z,1.20
2023-02-03T06:25:07.099Z,1.10
2023-02-03T06:27:12.563Z,1.80
2023-02-03T06:29:16.976Z,1.83
2023-02-03T06:31:21.205Z,1.90
2023-02-03T06:33:25.338Z,1.38
2023-02-03T06:35:29.477Z,1.55
2023-02-03T06:37:35.519Z,1.67
2023-02-03T06:39:39.580Z,1.83
2023-02-03T06:41:43.655Z,1.60
2023-02-03T06:43:49.139Z,1.05
2023-02-03T06:45:53.588Z,1.40
2023-02-03T06:47:57.682Z,1.20
2023-02-03T06:50:01.771Z,1.55
2023-02-03T06:52:06.073Z,1.30
2023-02-03T06:54:10.954Z,1.25
2023-02-03T06:56:15.059Z,1.30
2023-02-03T06:58:19.129Z,1.50
2023-02-03T07:00:24.958Z,1.38
2023-02-03T07:02:29.077Z,2.00
2023-02-03T07:04:33.161Z,1.23
2023-02-03T07:06:37.349Z,1.13
2023-02-03T07:08:41.566Z,1.15
2023-02-03T07:10:45.632Z,1.40
2023-02-03T07:12:50.621Z,1.25
2023-02-03T07:14:55.201Z,1.30
2023-02-03T07:17:00.730Z,1.58
2023-02-03T07:19:04.941Z,1.60
2023-02-03T07:21:09.237Z,1.27
2023-02-03T07:23:13.320Z,1.27
2023-02-03T07:25:17.423Z,1.80
2023-02-03T07:27:21.493Z,1.45
2023-02-03T07:29:25.621Z,1.35
2023-02-03T07:31:29.824Z,1.30
2023-02-03T07:33:35.306Z,1.30
2023-02-03T07:35:39.417Z,1.08
2023-02-03T07:37:43.687Z,1.05
2023-02-03T07:39:47.808Z,1.83
2023-02-03T07:41:51.870Z,1.42
2023-02-03T07:43:56.194Z,1.50
2023-02-03T07:46:01.688Z,1.55
2023-02-03T07:48:06.129Z,1.45
2023-02-03T07:50:12.087Z,1.33
2023-02-03T07:52:16.313Z,1.45
2023-02-03T07:54:20.465Z,1.48
2023-02-03T07:56:24.556Z,1.40
2023-02-03T07:58:28.638Z,1.60
2023-02-03T08:00:32.710Z,1.45
2023-02-03T08:02:36.796Z,1.58
2023-02-03T08:04:40.913Z,2.00
2023-02-03T08:06:46.555Z,1.30
2023-02-03T08:08:50.627Z,0.98
2023-02-03T08:10:56.995Z,1.30
2023-02-03T08:13:01.076Z,1.67
2023-02-03T08:15:05.711Z,1.45
2023-02-03T08:17:10.024Z,1.85
2023-02-03T08:19:14.544Z,1.13
2023-02-03T08:21:18.612Z,1.20
2023-02-03T08:23:24.027Z,1.30
2023-02-03T08:25:28.159Z,1.45
2023-02-03T08:27:33.377Z,1.55
2023-02-03T08:29:37.494Z,1.23
2023-02-03T08:31:43.438Z,1.25
2023-02-03T08:33:47.570Z,1.90
2023-02-03T08:35:51.788Z,1.83
2023-02-03T08:37:56.229Z,1.05
2023-02-03T08:40:01.660Z,1.70
2023-02-03T08:42:06.111Z,1.40
2023-02-03T08:44:10.217Z,1.15
2023-02-03T08:46:14.472Z,2.72
2023-02-03T08:48:18.573Z,1.80
2023-02-03T08:50:22.767Z,1.50
2023-02-03T08:52:26.855Z,1.50
2023-02-03T08:54:30.932Z,1.27
2023-02-03T08:56:36.452Z,1.20
2023-02-03T08:58:40.555Z,1.80
2023-02-03T09:00:44.775Z,1.48
2023-02-03T09:02:48.872Z,1.30
2023-02-03T09:04:53.053Z,1.65
2023-02-03T09:06:57.262Z,1.02
2023-02-03T09:09:01.314Z,1.23
2023-02-03T09:11:09.017Z,1.42
2023-02-03T09:13:14.469Z,1.25
2023-02-03T09:15:18.764Z,0.98
2023-02-03T09:17:23.029Z,1.55
2023-02-03T09:19:27.188Z,2.03
2023-02-03T09:21:35.529Z,1.10
2023-02-03T09:23:50.927Z,1.60
2023-02-03T09:25:54.982Z,1.20
2023-02-03T09:27:59.077Z,1.63
2023-02-03T09:30:43.063Z,1.42
2023-02-03T09:32:54.067Z,1.08
2023-02-03T09:34:58.315Z,1.40
2023-02-03T09:37:02.545Z,1.63
2023-02-03T09:39:07.004Z,1.30
2023-02-03T09:41:18.218Z,1.58
2023-02-03T09:43:30.713Z,1.38
2023-02-03T09:45:34.809Z,1.05
2023-02-03T09:47:40.157Z,1.35
2023-02-03T09:49:47.759Z,1.40
2023-02-03T09:51:53.578Z,1.30
2023-02-03T09:54:01.783Z,2.13
2023-02-03T09:56:06.079Z,1.40
2023-02-03T09:58:12.837Z,2.35
2023-02-03T10:00:20.484Z,1.13
2023-02-03T10:02:45.451Z,1.30
2023-02-03T10:04:53.608Z,2.08
2023-02-03T10:07:02.722Z,1.20
2023-02-03T10:09:28.897Z,1.65
2023-02-03T10:11:49.597Z,1.13
2023-02-03T10:13:58.724Z,1.10
2023-02-03T10:16:10.381Z,1.20
2023-02-03T10:18:15.338Z,1.30
2023-02-03T10:20:22.933Z,1.38
2023-02-03T10:22:28.481Z,1.42
2023-02-03T10:24:37.098Z,2.50
2023-02-03T10:26:41.180Z,1.08
2023-02-03T10:28:49.347Z,1.20
2023-02-03T10:30:56.804Z,1.73
2023-02-03T10:33:03.111Z,1.10
2023-02-03T10:35:11.769Z,1.10
2023-02-03T10:37:23.377Z,1.90
2023-02-03T10:39:33.232Z,1.75
2023-02-03T10:41:37.309Z,1.77
2023-02-03T10:43:51.955Z,1.13
2023-02-03T10:45:56.372Z,1.23
2023-02-03T10:48:00.456Z,1.05
2023-02-03T10:50:07.358Z,1.13
2023-02-03T10:52:11.462Z,1.17
2023-02-03T10:54:33.462Z,1.48
2023-02-03T10:56:38.417Z,1.08
2023-02-03T10:58:48.809Z,1.58
2023-02-03T11:00:55.551Z,1.40
2023-02-03T11:03:04.249Z,1.00
2023-02-03T11:05:13.004Z,1.08
2023-02-03T11:07:26.151Z,1.10
2023-02-03T11:09:34.625Z,0.93
2023-02-03T11:11:41.579Z,0.73
2023-02-03T11:13:45.787Z,2.55
2023-02-03T11:15:57.945Z,1.25
2023-02-03T11:18:02.011Z,1.15
2023-02-03T11:20:13.729Z,1.27
2023-02-03T11:22:28.603Z,1.33
2023-02-03T11:24:35.274Z,1.10
2023-02-03T11:26:44.388Z,2.25
2023-02-03T11:28:49.908Z,1.88
2023-02-03T11:30:56.965Z,1.17
2023-02-03T11:33:02.467Z,1.20
2023-02-03T11:35:14.774Z,1.52
2023-02-03T11:37:29.725Z,1.60
2023-02-03T11:39:35.733Z,1.40
2023-02-03T11:41:40.263Z,2.42
2023-02-03T11:43:44.790Z,1.65
2023-02-03T11:45:49.617Z,1.73
2023-02-03T11:47:57.010Z,1.30
2023-02-03T11:50:22.077Z,1.70
2023-02-03T11:52:49.350Z,1.60
2023-02-03T11:54:57.311Z,1.50
2023-02-03T11:57:09.482Z,1.52
2023-02-03T11:59:25.044Z,1.10
2023-02-03T12:01:43.284Z,1.42
2023-02-03T12:04:28.993Z,1.50
2023-02-03T12:06:54.865Z,2.08
2023-02-03T12:09:10.972Z,1.65
2023-02-03T12:11:23.958Z,1.60
2023-02-03T12:14:01.142Z,1.45
2023-02-03T12:16:16.930Z,1.10
2023-02-03T12:18:34.659Z,1.55
2023-02-03T12:20:48.104Z,1.10
2023-02-03T12:22:56.073Z,2.10
2023-02-03T12:25:03.920Z,1.88
2023-02-03T12:27:17.515Z,1.63
2023-02-03T12:29:23.465Z,1.67
2023-02-03T12:31:31.588Z,2.15
2023-02-03T12:33:36.912Z,1.45
2023-02-03T12:35:44.756Z,1.58
2023-02-03T12:37:51.489Z,1.25
2023-02-03T12:39:57.025Z,1.05
2023-02-03T12:42:02.930Z,1.20
2023-02-03T12:44:09.907Z,1.40
2023-02-03T12:46:15.729Z,2.55
2023-02-03T12:48:21.330Z,2.42
2023-02-03T12:50:28.802Z,1.40
2023-02-03T12:52:36.105Z,2.65
2023-02-03T12:54:45.314Z,1.52
2023-02-03T12:56:49.420Z,1.50
2023-02-03T12:58:55.387Z,1.40
2023-02-03T13:01:01.852Z,1.42
2023-02-03T13:03:11.942Z,2.35
2023-02-03T13:05:20.983Z,1.45
2023-02-03T13:07:26.730Z,1.80
2023-02-03T13:09:32.904Z,1.35
2023-02-03T13:11:38.211Z,1.55
2023-02-03T13:13:45.388Z,1.70
2023-02-03T13:15:50.454Z,1.38
2023-02-03T13:17:57.601Z,1.77
2023-02-03T13:20:03.497Z,1.25
2023-02-03T13:22:11.997Z,1.20
2023-02-03T13:24:16.108Z,1.40
2023-02-03T13:26:41.190Z,1.63
2023-02-03T13:29:00.869Z,1.00
2023-02-03T13:31:14.570Z,1.20
2023-02-03T13:33:53.348Z,1.30
2023-02-03T13:36:03.271Z,1.52
2023-02-03T13:38:29.154Z,1.20
2023-02-03T13:40:44.891Z,0.98
2023-02-03T13:42:53.364Z,1.55
2023-02-03T13:44:59.990Z,1.38
2023-02-03T13:47:04.105Z,1.20
2023-02-03T13:49:09.680Z,1.88
2023-02-03T13:51:17.044Z,2.10
2023-02-03T13:53:21.835Z,1.00
2023-02-03T13:55:31.883Z,1.27
2023-02-03T13:57:37.926Z,1.15
2023-02-03T13:59:43.044Z,0.98
2023-02-03T14:01:47.114Z,1.20
2023-02-03T14:03:51.236Z,2.28
2023-02-03T14:05:56.816Z,1.23
2023-02-03T14:08:01.218Z,1.40
2023-02-03T14:10:26.262Z,2.05
2023-02-03T14:12:34.548Z,1.80
2023-02-03T14:15:04.042Z,1.38
2023-02-03T14:17:10.642Z,1.13
2023-02-03T14:19:35.547Z,1.30
2023-02-03T14:21:43.307Z,1.13
2023-02-03T14:23:51.249Z,1.30
2023-02-03T14:25:56.818Z,1.25
2023-02-03T14:28:01.260Z,1.40
2023-02-03T14:30:07.873Z,1.45
2023-02-03T14:32:12.387Z,1.05
2023-02-03T14:34:16.756Z,1.25
2023-02-03T14:36:32.184Z,0.90
2023-02-03T14:38:37.658Z,1.42
2023-02-03T14:40:43.124Z,1.08
2023-02-03T14:43:11.426Z,0.98
2023-02-03T14:45:26.339Z,1.13
2023-02-03T14:47:40.829Z,1.20
2023-02-03T14:49:52.142Z,0.80
2023-02-03T14:52:10.070Z,1.08
2023-02-03T14:54:38.680Z,1.05
2023-02-03T14:57:04.764Z,1.15
2023-02-03T14:59:09.881Z,1.35
2023-02-03T15:01:25.818Z,1.23
2023-02-03T15:03:31.155Z,1.33
2023-02-03T15:05:39.914Z,1.95
2023-02-03T15:07:46.043Z,1.23
2023-02-03T15:09:51.552Z,1.10
2023-02-03T15:11:55.655Z,1.25
2023-02-03T15:14:19.237Z,1.45
2023-02-03T15:16:24.694Z,1.42
2023-02-03T15:18:30.898Z,1.15
2023-02-03T15:20:38.614Z,1.45
2023-02-03T15:22:42.770Z,1.33
2023-02-03T15:24:46.973Z,1.10
2023-02-03T15:26:53.502Z,1.67
2023-02-03T15:28:58.681Z,1.67
2023-02-03T15:31:04.504Z,1.27
2023-02-03T15:33:10.419Z,1.20
2023-02-03T15:35:16.086Z,1.25
2023-02-03T15:37:22.427Z,0.90
2023-02-03T15:39:34.681Z,1.45
2023-02-03T15:41:38.751Z,1.33
2023-02-03T15:43:44.959Z,1.55
2023-02-03T15:45:56.776Z,1.20
2023-02-03T15:48:02.312Z,1.20
2023-02-03T15:50:17.688Z,1.23
2023-02-03T15:52:23.616Z,0.88
2023-02-03T15:54:30.342Z,1.20
2023-02-03T15:56:37.828Z,0.93
2023-02-03T15:58:46.901Z,1.00
2023-02-03T16:00:51.578Z,0.98
2023-02-03T16:02:55.736Z,1.02
2023-02-03T16:04:59.958Z,1.20
2023-02-03T16:07:04.242Z,1.40
2023-02-03T16:09:08.547Z,0.73
2023-02-03T16:11:29.930Z,1.00
2023-02-03T16:13:35.791Z,1.60
2023-02-03T16:15:41.311Z,0.80
2023-02-03T16:17:45.426Z,1.05
2023-02-03T16:19:51.241Z,0.80
2023-02-03T16:21:56.657Z,1.05
2023-02-03T16:24:00.934Z,1.30
2023-02-03T16:26:18.203Z,1.17
2023-02-03T16:28:40.672Z,1.38
2023-02-03T16:31:13.497Z,0.70
2023-02-03T16:33:35.866Z,1.50
2023-02-03T16:35:57.443Z,0.95
2023-02-03T16:38:24.336Z,1.02
2023-02-03T16:40:46.024Z,1.00
2023-02-03T16:43:07.655Z,1.85
2023-02-03T16:45:33.113Z,1.15
2023-02-03T16:47:57.207Z,1.10
2023-02-03T16:50:26.400Z,0.82
2023-02-03T16:52:40.498Z,0.65
2023-02-03T16:54:44.688Z,1.48
2023-02-03T16:56:49.335Z,0.80
2023-02-03T16:58:53.459Z,1.40
2023-02-03T17:00:59.132Z,1.20
2023-02-03T17:03:06.487Z,0.55
2023-02-03T17:05:10.783Z,1.40
2023-02-03T17:07:14.842Z,0.82
2023-02-03T17:09:21.969Z,0.75
2023-02-03T17:11:31.304Z,1.65
2023-02-03T17:13:36.903Z,0.98
2023-02-03T17:15:41.716Z,1.23
2023-02-03T17:17:46.049Z,0.85
2023-02-03T17:19:51.630Z,0.85
2023-02-03T17:21:55.967Z,1.40
2023-02-03T17:24:00.458Z,1.98
2023-02-03T17:26:05.032Z,1.63
2023-02-03T17:28:10.092Z,0.73
2023-02-03T17:30:14.935Z,0.93
2023-02-03T17:32:19.134Z,1.08
2023-02-03T17:34:23.488Z,0.73
2023-02-03T17:36:29.667Z,0.95
2023-02-03T17:38:36.794Z,1.20
2023-02-03T17:54:57.817Z,1.15
2023-02-03T17:57:05.651Z,1.20
2023-02-03T17:59:10.357Z,0.80
2023-02-03T18:01:17.601Z,0.85
2023-02-03T18:03:22.117Z,0.82
2023-02-03T18:05:29.477Z,1.90
2023-02-03T18:08:12.118Z,1.00
2023-02-03T18:10:21.633Z,1.02
2023-02-03T18:12:26.046Z,1.15
2023-02-03T18:14:30.679Z,0.90
2023-02-03T18:16:35.976Z,1.27
2023-02-03T18:18:40.272Z,1.60
2023-02-03T18:20:44.537Z,1.02
2023-02-03T18:22:48.738Z,1.10
2023-02-03T18:24:55.479Z,1.45
2023-02-03T18:27:00.395Z,1.10
2023-02-03T18:29:05.572Z,1.27
2023-02-03T18:31:10.681Z,1.08
2023-02-03T18:33:14.769Z,1.40
2023-02-03T18:35:19.081Z,1.13
2023-02-03T18:37:23.158Z,1.13
2023-02-03T18:39:31.613Z,1.15
2023-02-03T18:41:38.410Z,1.30
2023-02-03T18:43:42.611Z,1.13
2023-02-03T18:45:46.826Z,1.10
2023-02-03T18:47:50.970Z,1.05
2023-02-03T18:49:55.251Z,1.15
2023-02-03T18:51:59.491Z,1.20
2023-02-03T18:54:04.249Z,1.23
2023-02-03T18:56:09.415Z,0.82
2023-02-03T18:58:14.855Z,1.02
2023-02-03T19:00:19.871Z,1.02
2023-02-03T19:02:25.649Z,1.45
2023-02-03T19:04:29.802Z,1.08
2023-02-03T19:06:34.441Z,0.95
2023-02-03T19:08:38.546Z,0.82
2023-02-03T19:10:42.657Z,0.75
2023-02-03T19:12:46.777Z,0.77
2023-02-03T19:14:52.404Z,0.70
2023-02-03T19:16:56.476Z,0.88
2023-02-03T19:19:00.642Z,1.00
2023-02-03T19:21:04.807Z,1.10
2023-02-03T19:23:08.880Z,2.05
2023-02-03T19:25:13.221Z,0.80
2023-02-03T19:27:17.303Z,1.85
2023-02-03T19:29:21.622Z,0.80
2023-02-03T19:31:27.698Z,1.10
2023-02-03T19:33:32.156Z,1.45
2023-02-03T19:35:36.310Z,1.00
2023-02-03T19:37:40.441Z,0.85
2023-02-03T19:39:44.977Z,0.90
2023-02-03T19:41:49.053Z,0.77
2023-02-03T19:43:53.507Z,0.75
2023-02-03T19:45:57.704Z,0.73
2023-02-03T19:48:03.135Z,1.08
2023-02-03T19:50:07.657Z,0.90
2023-02-03T19:52:12.448Z,1.30
2023-02-03T19:54:17.056Z,1.42
2023-02-03T19:56:21.158Z,1.10
2023-02-03T19:58:25.244Z,0.90
2023-02-03T20:00:29.668Z,0.85
2023-02-03T20:02:33.916Z,1.15
2023-02-03T20:04:39.404Z,1.27
2023-02-03T20:06:43.564Z,1.10
2023-02-03T20:08:47.694Z,1.55
2023-02-03T20:10:52.331Z,1.02
2023-02-03T20:12:56.514Z,0.98
2023-02-03T20:15:01.329Z,0.70
2023-02-03T20:17:07.383Z,1.40
2023-02-03T20:19:11.569Z,1.20
2023-02-03T20:21:17.056Z,1.25
2023-02-03T20:23:21.123Z,1.25
2023-02-03T20:25:25.337Z,1.27
2023-02-03T20:27:29.467Z,1.00
2023-02-03T20:29:33.747Z,0.98
2023-02-03T20:31:37.888Z,1.20
2023-02-03T20:33:42.126Z,0.75
2023-02-03T20:35:46.281Z,0.77
2023-02-03T20:37:52.203Z,0.70
2023-02-03T20:39:56.392Z,1.10
2023-02-03T20:42:00.496Z,0.63
2023-02-03T20:44:07.762Z,2.10
2023-02-03T20:46:12.188Z,0.65
2023-02-03T20:48:16.856Z,1.15
2023-02-03T20:50:28.933Z,0.90
2023-02-03T20:52:52.589Z,0.80
2023-02-03T20:57:07.000Z,0.68
2023-02-03T20:59:14.047Z,0.70
2023-02-03T21:01:21.117Z,0.85
2023-02-03T21:03:39.664Z,0.70
2023-02-03T21:05:45.331Z,0.70
2023-02-03T21:07:50.017Z,0.63
2023-02-03T21:10:06.880Z,0.68
2023-02-03T21:12:12.714Z,0.85
2023-02-03T21:14:21.105Z,1.27
2023-02-03T21:16:27.498Z,0.80
2023-02-03T21:18:35.763Z,0.50
2023-02-03T21:20:40.013Z,0.70
2023-02-03T21:22:44.232Z,0.85
2023-02-03T21:24:53.670Z,1.10
2023-02-03T21:26:59.373Z,0.85
2023-02-03T21:29:03.922Z,0.93
2023-02-03T21:31:23.324Z,0.75
2023-02-03T21:33:30.811Z,0.80
2023-02-03T21:35:37.109Z,0.50
2023-02-03T21:37:42.631Z,0.65
2023-02-03T21:39:47.916Z,0.75
2023-02-03T21:41:52.127Z,0.93
2023-02-03T21:43:58.212Z,0.70
2023-02-03T21:46:03.659Z,0.90
2023-02-03T21:48:35.389Z,0.82
2023-02-03T21:50:41.007Z,0.65
2023-02-03T21:52:45.134Z,0.75
2023-02-03T21:54:49.460Z,1.02
2023-02-03T21:56:54.165Z,0.85
2023-02-03T21:59:00.233Z,0.52
2023-02-03T22:01:06.202Z,1.05
2023-02-03T22:03:19.092Z,0.98
2023-02-03T22:05:23.264Z,0.60
2023-02-03T22:07:27.392Z,0.93
2023-02-03T22:09:31.564Z,0.63
2023-02-03T22:11:35.757Z,0.60
2023-02-03T22:13:40.226Z,0.88
2023-02-03T22:15:45.717Z,0.55
2023-02-03T22:17:50.955Z,0.93
2023-02-03T22:19:55.128Z,0.70
2023-02-03T22:21:59.410Z,1.05
2023-02-03T22:24:03.929Z,0.50
2023-02-03T22:26:08.089Z,1.42
2023-02-03T22:28:12.642Z,0.40
2023-02-03T22:30:17.902Z,0.68
2023-02-03T22:32:23.662Z,0.70
2023-02-03T22:34:27.859Z,0.93
2023-02-03T22:36:32.031Z,0.60
2023-02-03T22:38:36.521Z,1.20
2023-02-03T22:40:40.717Z,0.70
2023-02-03T22:42:45.102Z,0.80
2023-02-03T22:44:49.293Z,1.05
2023-02-03T22:46:53.504Z,0.90
2023-02-03T22:48:58.988Z,0.47
2023-02-03T22:51:03.194Z,0.68
2023-02-03T22:53:09.178Z,0.45
2023-02-03T22:55:13.358Z,0.50
2023-02-03T22:57:17.608Z,0.88
2023-02-03T22:59:21.734Z,0.55
2023-02-03T23:01:25.895Z,0.50
2023-02-03T23:03:32.498Z,0.75
2023-02-03T23:05:38.283Z,0.77
2023-02-03T23:07:42.527Z,0.80
2023-02-03T23:09:46.735Z,0.90
2023-02-03T23:11:51.021Z,1.48
2023-02-03T23:13:55.165Z,0.70
2023-02-03T23:15:59.307Z,0.60
2023-02-03T23:18:03.945Z,0.77
2023-02-03T23:20:09.695Z,0.60
2023-02-03T23:22:15.696Z,0.88
2023-02-03T23:24:19.841Z,0.70
2023-02-03T23:26:24.016Z,1.10
2023-02-03T23:28:28.194Z,0.88
2023-02-03T23:30:34.098Z,0.73
2023-02-03T23:32:38.644Z,0.63
2023-02-03T23:35:00.326Z,0.60
2023-02-03T23:37:04.465Z,0.55
2023-02-03T23:39:09.979Z,0.93
2023-02-03T23:41:14.205Z,0.70
2023-02-03T23:43:18.357Z,1.27
2023-02-03T23:45:22.599Z,0.73
2023-02-03T23:47:26.807Z,0.63
2023-02-03T23:49:31.315Z,1.02
2023-02-03T23:51:35.445Z,1.33
2023-02-03T23:53:39.616Z,0.73
2023-02-03T23:55:45.132Z,0.80
2023-02-03T23:57:49.328Z,0.70
2023-02-03T23:59:53.490Z,0.60
